Time;durP1;ratioP1;P1;durP2;ratioP2;P2;SDS_P1;SDS_P2;PMS_P1;PMS_P2;Temp;Humidity;BMP_temperature;BMP_pressure;BME280_temperature;BME280_humidity;BME280_pressure;Samples;Min_cycle;Max_cycle;Signal;HPM_P1;HPM_P2
2023/09/07 00:00:42;;;;;;;8.40;7.77;;;20.00;1.00;;;;;;5066334;28;20479;-69
2023/09/07 00:03:09;;;;;;;8.03;7.33;;;20.10;1.00;;;;;;5066019;28;20583;-71
2023/09/07 00:05:36;;;;;;;8.50;7.70;;;20.10;1.00;;;;;;5066014;28;20477;-71
2023/09/07 00:08:07;;;;;;;7.90;7.20;;;20.00;1.00;;;;;;5062161;28;20464;-75
2023/09/07 00:10:35;;;;;;;7.23;6.63;;;20.00;1.00;;;;;;5064547;28;20499;-75
2023/09/07 00:13:03;;;;;;;8.40;7.80;;;20.00;1.00;;;;;;5065465;28;22109;-76
2023/09/07 00:15:30;;;;;;;7.33;6.63;;;20.00;1.00;;;;;;5070315;28;20478;-75
2023/09/07 00:17:57;;;;;;;8.70;7.17;;;20.00;1.00;;;;;;5068561;28;20566;-72
2023/09/07 00:20:25;;;;;;;7.83;7.23;;;19.90;1.00;;;;;;5064189;28;21258;-76
2023/09/07 00:22:51;;;;;;;8.83;8.10;;;19.90;1.00;;;;;;5063905;28;20591;-74
2023/09/07 00:25:20;;;;;;;8.43;7.63;;;19.90;1.00;;;;;;5061829;28;20458;-74
2023/09/07 00:27:47;;;;;;;8.60;7.80;;;19.90;1.00;;;;;;5063545;28;21069;-76
2023/09/07 00:30:14;;;;;;;8.60;7.90;;;19.80;1.00;;;;;;5065207;28;20577;-76
2023/09/07 00:32:41;;;;;;;9.47;8.57;;;19.80;1.00;;;;;;5062964;28;20508;-76
2023/09/07 00:35:09;;;;;;;9.07;8.20;;;19.90;1.00;;;;;;5062727;28;20467;-77
2023/09/07 00:37:36;;;;;;;8.50;7.70;;;19.80;1.00;;;;;;5066442;28;20487;-76
2023/09/07 00:40:03;;;;;;;8.20;7.60;;;19.80;1.00;;;;;;5062338;28;21141;-73
2023/09/07 00:42:33;;;;;;;9.70;8.90;;;19.70;1.00;;;;;;5066231;28;20465;-77
2023/09/07 00:57:47;;;;;;;8.73;8.07;;;19.70;1.00;;;;;;5009480;28;20603;-73
2023/09/07 01:00:15;;;;;;;9.10;8.30;;;19.60;1.00;;;;;;5009458;28;20468;-76
2023/09/07 01:02:44;;;;;;;9.00;8.30;;;19.60;1.00;;;;;;5045051;28;20514;-76
2023/09/07 01:05:12;;;;;;;9.23;8.43;;;19.50;1.00;;;;;;5061175;28;21002;-76
2023/09/07 01:07:45;;;;;;;8.77;8.07;;;19.50;1.00;;;;;;5068028;28;20960;-72
2023/09/07 01:10:13;;;;;;;9.20;8.37;;;19.50;1.00;;;;;;5063194;28;20456;-76
2023/09/07 01:12:40;;;;;;;9.20;8.40;;;19.50;1.00;;;;;;5060845;28;20427;-73
2023/09/07 01:15:10;;;;;;;9.30;8.50;;;19.50;1.00;;;;;;5061955;28;20543;-72
2023/09/07 01:17:38;;;;;;;8.37;7.70;;;19.50;1.00;;;;;;5063122;28;20841;-72
2023/09/07 01:20:09;;;;;;;9.23;8.43;;;19.50;1.00;;;;;;5062982;28;20543;-75
2023/09/07 01:22:38;;;;;;;9.40;8.70;;;19.50;1.00;;;;;;5061975;28;20926;-75
2023/09/07 01:25:08;;;;;;;8.93;8.23;;;19.50;1.00;;;;;;5061035;28;20977;-73
2023/09/07 01:27:35;;;;;;;9.17;8.33;;;19.40;1.00;;;;;;5059682;28;20459;-75
2023/09/07 01:30:03;;;;;;;9.20;8.53;;;19.40;1.00;;;;;;5063203;28;20550;-75
2023/09/07 01:32:30;;;;;;;10.13;9.23;;;19.30;1.00;;;;;;5064924;28;20455;-75
2023/09/07 01:34:58;;;;;;;9.57;8.77;;;19.30;1.00;;;;;;5062023;28;20507;-76
2023/09/07 01:37:25;;;;;;;11.63;10.20;;;19.20;1.00;;;;;;5061742;28;20551;-75
2023/09/07 01:39:54;;;;;;;10.17;9.20;;;19.10;1.00;;;;;;5067786;28;20498;-75
2023/09/07 01:42:21;;;;;;;8.67;7.87;;;19.10;1.00;;;;;;5066600;28;20543;-75
2023/09/07 01:44:48;;;;;;;9.97;9.07;;;19.10;1.00;;;;;;5067214;28;20480;-74
2023/09/07 01:47:15;;;;;;;9.20;8.50;;;19.10;1.00;;;;;;5051461;28;20451;-75
2023/09/07 01:49:42;;;;;;;9.60;8.83;;;19.10;1.00;;;;;;5065150;28;20473;-75
2023/09/07 01:52:09;;;;;;;9.60;8.90;;;19.00;1.00;;;;;;5064513;28;20451;-75
2023/09/07 01:54:36;;;;;;;10.00;9.00;;;19.00;1.00;;;;;;5067007;28;20566;-79
2023/09/07 01:57:05;;;;;;;10.37;9.37;;;19.00;1.00;;;;;;5067713;28;20490;-74
2023/09/07 01:59:32;;;;;;;9.80;8.90;;;19.00;1.00;;;;;;5065022;28;20443;-75
2023/09/07 02:01:59;;;;;;;9.50;8.70;;;18.90;1.00;;;;;;5062576;28;21063;-77
2023/09/07 02:04:25;;;;;;;10.40;9.50;;;18.90;1.00;;;;;;5061048;28;20502;-75
2023/09/07 02:06:52;;;;;;;9.47;8.67;;;18.90;1.00;;;;;;5064259;28;20453;-75
2023/09/07 02:09:19;;;;;;;10.90;9.20;;;18.90;1.00;;;;;;5063777;28;20461;-75
2023/09/07 02:11:46;;;;;;;9.70;8.90;;;18.90;1.00;;;;;;5063207;28;20462;-76
2023/09/07 02:14:14;;;;;;;11.23;10.23;;;18.90;1.00;;;;;;5066604;28;20555;-75
2023/09/07 02:16:41;;;;;;;10.10;9.10;;;18.90;1.00;;;;;;5058281;28;20589;-74
2023/09/07 02:19:08;;;;;;;10.17;9.10;;;18.80;1.00;;;;;;5063082;28;20471;-77
2023/09/07 02:21:35;;;;;;;10.30;9.30;;;18.70;1.00;;;;;;5062493;28;20473;-75
2023/09/07 02:24:03;;;;;;;12.93;10.17;;;18.70;1.00;;;;;;5063902;28;20462;-77
2023/09/07 02:26:29;;;;;;;11.50;10.50;;;18.70;1.00;;;;;;5065505;28;20900;-72
2023/09/07 02:28:56;;;;;;;10.30;9.33;;;18.70;1.00;;;;;;5058776;28;21049;-71
2023/09/07 02:31:25;;;;;;;9.80;8.90;;;18.70;1.00;;;;;;5061204;28;20467;-70
2023/09/07 02:33:51;;;;;;;11.70;10.70;;;18.60;1.00;;;;;;5064414;28;20568;-72
2023/09/07 02:36:18;;;;;;;11.27;10.03;;;18.60;1.00;;;;;;5064156;28;20557;-71
2023/09/07 02:38:45;;;;;;;11.60;8.70;;;18.60;1.00;;;;;;5061307;28;20540;-71
2023/09/07 02:41:15;;;;;;;10.00;9.10;;;18.60;1.00;;;;;;5066204;28;20469;-72
2023/09/07 02:43:43;;;;;;;9.53;8.70;;;18.60;1.00;;;;;;5058856;28;20476;-69
2023/09/07 02:46:10;;;;;;;9.93;9.13;;;18.60;1.00;;;;;;5062127;28;20454;-70
2023/09/07 02:48:39;;;;;;;10.47;9.60;;;18.50;1.00;;;;;;5062785;28;20489;-71
2023/09/07 02:51:05;;;;;;;9.90;9.10;;;18.50;1.00;;;;;;5063162;28;20449;-71
2023/09/07 02:53:32;;;;;;;9.17;8.27;;;18.40;1.00;;;;;;5061083;28;20664;-70
2023/09/07 02:56:01;;;;;;;8.77;7.97;;;18.40;1.00;;;;;;5061082;28;20907;-71
2023/09/07 02:58:28;;;;;;;10.93;8.60;;;18.40;1.00;;;;;;5064243;28;20918;-71
2023/09/07 03:00:55;;;;;;;9.83;8.93;;;18.30;1.00;;;;;;5066771;28;20556;-71
2023/09/07 03:03:22;;;;;;;11.40;9.10;;;18.30;1.00;;;;;;5061653;28;20472;-72
2023/09/07 03:05:50;;;;;;;12.07;10.63;;;18.30;1.00;;;;;;5062013;28;20481;-70
2023/09/07 03:08:17;;;;;;;11.73;10.53;;;18.30;1.00;;;;;;5061630;28;20556;-71
2023/09/07 03:10:44;;;;;;;8.97;8.27;;;18.20;1.00;;;;;;5059326;28;20464;-72
2023/09/07 03:13:11;;;;;;;10.23;9.43;;;18.20;1.00;;;;;;5060843;28;20465;-71
2023/09/07 03:15:38;;;;;;;11.07;9.97;;;18.10;1.00;;;;;;5058915;28;20504;-72
2023/09/07 03:18:05;;;;;;;11.10;9.90;;;18.20;1.00;;;;;;5059179;28;20933;-72
2023/09/07 03:20:35;;;;;;;10.00;9.00;;;18.20;1.00;;;;;;5065518;28;20533;-72
2023/09/07 03:23:03;;;;;;;10.40;9.50;;;18.10;1.00;;;;;;5061782;28;20476;-72
2023/09/07 03:25:30;;;;;;;10.67;9.77;;;18.10;1.00;;;;;;5060158;28;20452;-69
2023/09/07 03:27:57;;;;;;;11.60;10.50;;;18.00;1.00;;;;;;5057854;28;20556;-71
2023/09/07 03:30:24;;;;;;;11.90;10.60;;;18.00;1.00;;;;;;5062169;28;20540;-72
2023/09/07 03:32:51;;;;;;;12.90;11.07;;;18.00;1.00;;;;;;5063075;28;21105;-71
2023/09/07 03:35:18;;;;;;;10.90;9.77;;;18.00;1.00;;;;;;5064125;28;20559;-71
2023/09/07 03:37:45;;;;;;;12.93;10.93;;;17.90;1.00;;;;;;5061907;28;20458;-72
2023/09/07 03:40:13;;;;;;;11.10;10.00;;;17.90;1.00;;;;;;5065880;28;20487;-72
2023/09/07 03:42:40;;;;;;;10.77;9.93;;;17.90;1.00;;;;;;5066458;28;21000;-72
2023/09/07 03:45:08;;;;;;;17.23;11.90;;;17.90;1.00;;;;;;5070553;28;20479;-72
2023/09/07 03:47:35;;;;;;;12.63;9.73;;;17.80;1.00;;;;;;5064352;28;20911;-73
2023/09/07 03:50:02;;;;;;;11.10;10.10;;;17.80;1.00;;;;;;5067000;28;20452;-73
2023/09/07 03:52:28;;;;;;;11.80;10.80;;;17.80;1.00;;;;;;5062783;28;20521;-73
2023/09/07 03:54:56;;;;;;;11.70;10.70;;;17.80;1.00;;;;;;5065414;28;20467;-73
2023/09/07 03:57:25;;;;;;;13.00;10.97;;;17.80;1.00;;;;;;5067731;28;20543;-73
2023/09/07 03:59:52;;;;;;;10.73;9.83;;;17.90;1.00;;;;;;5065452;28;20537;-71
2023/09/07 04:02:19;;;;;;;10.10;9.10;;;17.90;1.00;;;;;;5061409;28;20930;-73
2023/09/07 04:04:50;;;;;;;11.47;10.37;;;17.80;1.00;;;;;;5060123;28;20475;-71
2023/09/07 04:07:17;;;;;;;11.90;10.87;;;17.80;1.00;;;;;;5058191;28;20491;-72
2023/09/07 04:09:44;;;;;;;12.07;10.87;;;17.80;1.00;;;;;;5062218;28;20460;-73
2023/09/07 04:12:12;;;;;;;12.03;10.83;;;17.80;1.00;;;;;;5056839;28;20471;-71
2023/09/07 04:14:41;;;;;;;11.43;10.33;;;17.80;1.00;;;;;;5061786;28;20532;-71
2023/09/07 04:17:08;;;;;;;11.77;10.70;;;17.80;1.00;;;;;;5062894;28;20477;-72
2023/09/07 04:19:35;;;;;;;11.10;10.10;;;17.70;1.00;;;;;;5059956;28;20555;-72
2023/09/07 04:22:02;;;;;;;11.17;9.97;;;17.70;1.00;;;;;;5065029;28;20551;-73
2023/09/07 04:24:29;;;;;;;12.53;11.23;;;17.80;1.00;;;;;;5066309;28;20447;-73
2023/09/07 04:26:59;;;;;;;11.33;10.43;;;17.70;1.00;;;;;;5061465;28;20463;-73
2023/09/07 04:29:26;;;;;;;11.37;10.20;;;17.80;1.00;;;;;;5055885;28;21004;-72
2023/09/07 04:31:54;;;;;;;15.40;10.73;;;17.70;1.00;;;;;;5063333;28;20480;-73
2023/09/07 04:34:22;;;;;;;11.40;10.30;;;17.70;1.00;;;;;;5067536;28;20479;-73
2023/09/07 04:36:50;;;;;;;11.90;10.70;;;17.70;1.00;;;;;;5064017;28;20557;-74
2023/09/07 04:39:17;;;;;;;12.03;10.90;;;17.60;1.00;;;;;;5066549;28;20462;-72
2023/09/07 04:41:46;;;;;;;16.50;11.63;;;17.60;1.00;;;;;;5065659;28;21090;-73
2023/09/07 04:44:13;;;;;;;18.90;16.90;;;17.60;1.00;;;;;;5067578;28;21286;-73
2023/09/07 04:46:39;;;;;;;11.33;10.30;;;17.70;1.00;;;;;;5061802;28;20457;-73
2023/09/07 04:49:08;;;;;;;12.87;10.90;;;17.60;1.00;;;;;;5063332;28;20464;-68
2023/09/07 04:51:35;;;;;;;11.90;10.80;;;17.60;1.00;;;;;;5064227;28;20476;-71
2023/09/07 04:54:02;;;;;;;10.80;9.80;;;17.60;1.00;;;;;;5060919;28;21259;-74
2023/09/07 04:56:29;;;;;;;14.00;10.73;;;17.70;1.00;;;;;;5067763;28;20953;-70
2023/09/07 04:58:57;;;;;;;11.60;10.50;;;17.70;1.00;;;;;;5068686;28;20461;-72
2023/09/07 05:01:24;;;;;;;10.63;9.83;;;17.70;1.00;;;;;;5061417;28;20465;-69
2023/09/07 05:03:51;;;;;;;12.00;10.80;;;17.70;1.00;;;;;;5061407;28;20503;-69
2023/09/07 05:06:21;;;;;;;13.30;11.90;;;17.70;1.00;;;;;;5056072;28;20425;-71
2023/09/07 05:08:48;;;;;;;11.33;10.23;;;17.80;1.00;;;;;;5060572;28;20527;-71
2023/09/07 05:11:15;;;;;;;12.20;11.00;;;17.80;1.00;;;;;;5060738;28;20479;-72
2023/09/07 05:13:42;;;;;;;12.27;11.07;;;17.80;1.00;;;;;;5064711;28;20476;-69
2023/09/07 05:16:09;;;;;;;12.23;11.20;;;17.90;1.00;;;;;;5060771;28;20558;-74
2023/09/07 05:18:36;;;;;;;12.13;11.00;;;17.90;1.00;;;;;;5060346;28;20474;-70
2023/09/07 05:21:12;;;;;;;11.23;10.23;;;18.00;1.00;;;;;;5060582;28;20949;-70
2023/09/07 05:23:41;;;;;;;11.73;10.10;;;18.10;1.00;;;;;;5064741;28;20516;-70
2023/09/07 05:26:11;;;;;;;13.00;11.77;;;18.10;1.00;;;;;;5066593;28;20510;-70
2023/09/07 05:28:38;;;;;;;12.00;10.83;;;18.20;1.00;;;;;;5062842;28;20480;-69
2023/09/07 05:31:05;;;;;;;13.87;12.47;;;18.20;1.00;;;;;;5057207;28;20595;-70
2023/09/07 05:33:32;;;;;;;12.70;11.50;;;18.30;1.00;;;;;;5063202;28;20455;-69
2023/09/07 05:35:59;;;;;;;12.97;11.70;;;18.40;1.00;;;;;;5066550;28;20974;-69
2023/09/07 05:38:26;;;;;;;13.87;12.47;;;18.40;1.00;;;;;;5063344;28;20696;-70
2023/09/07 05:40:56;;;;;;;11.90;9.97;;;18.50;1.00;;;;;;5061894;28;20561;-70
2023/09/07 05:43:22;;;;;;;11.73;10.70;;;18.60;1.00;;;;;;5065882;28;20517;-70
2023/09/07 05:45:49;;;;;;;12.20;10.60;;;18.70;1.00;;;;;;5060939;28;20466;-71
2023/09/07 05:48:17;;;;;;;12.23;11.13;;;18.80;1.00;;;;;;5063488;28;20458;-70
2023/09/07 05:50:44;;;;;;;11.70;10.70;;;18.90;1.00;;;;;;5065111;28;20960;-72
2023/09/07 05:53:13;;;;;;;12.40;10.83;;;19.00;1.00;;;;;;5060543;28;20476;-70
2023/09/07 05:55:40;;;;;;;12.47;11.27;;;19.00;1.00;;;;;;5063870;28;20471;-72
2023/09/07 05:58:10;;;;;;;11.60;10.67;;;19.20;1.00;;;;;;5062874;28;20513;-74
2023/09/07 06:00:40;;;;;;;12.80;10.80;;;19.20;1.00;;;;;;5058300;28;20902;-74
2023/09/07 06:03:08;;;;;;;11.97;10.87;;;19.20;1.00;;;;;;5062015;28;20451;-75
2023/09/07 06:05:35;;;;;;;11.70;10.60;;;19.30;1.00;;;;;;5061362;28;20556;-73
2023/09/07 06:08:02;;;;;;;13.33;11.70;;;19.30;1.00;;;;;;5063873;28;20957;-74
2023/09/07 06:10:30;;;;;;;18.20;11.10;;;19.40;1.00;;;;;;5063252;28;20511;-75
2023/09/07 06:12:58;;;;;;;11.20;10.27;;;19.50;1.00;;;;;;5064388;28;20891;-76
2023/09/07 06:15:27;;;;;;;14.40;10.40;;;19.50;1.00;;;;;;5060969;28;20560;-77
2023/09/07 06:17:54;;;;;;;12.60;10.30;;;19.50;1.00;;;;;;5063254;28;21178;-79
2023/09/07 06:20:21;;;;;;;12.77;11.47;;;19.60;1.00;;;;;;5064555;28;20483;-77
2023/09/07 06:22:50;;;;;;;12.80;11.50;;;19.70;1.00;;;;;;5063161;28;20585;-79
2023/09/07 06:25:17;;;;;;;11.63;10.50;;;19.70;1.00;;;;;;5065545;28;20455;-78
2023/09/07 06:27:44;;;;;;;14.33;10.53;;;19.80;1.00;;;;;;5063877;28;20501;-78
2023/09/07 06:30:12;;;;;;;9.43;8.60;;;19.90;1.00;;;;;;5063053;28;20472;-78
2023/09/07 06:32:42;;;;;;;12.73;10.50;;;19.90;1.00;;;;;;5062722;28;20506;-79
2023/09/07 06:35:10;;;;;;;10.80;9.20;;;20.00;1.00;;;;;;5062405;28;20452;-75
2023/09/07 06:37:40;;;;;;;13.43;9.40;;;20.10;1.00;;;;;;5058213;28;20560;-76
2023/09/07 06:40:08;;;;;;;12.57;10.60;;;20.20;1.00;;;;;;5060470;28;20487;-75
2023/09/07 06:42:35;;;;;;;10.53;9.60;;;20.20;1.00;;;;;;5057619;28;20530;-76
2023/09/07 06:45:02;;;;;;;11.97;9.50;;;20.30;1.00;;;;;;5060070;28;20462;-75
2023/09/07 06:47:29;;;;;;;11.33;10.00;;;20.40;1.00;;;;;;5062532;28;20468;-77
2023/09/07 06:49:58;;;;;;;11.03;9.87;;;20.50;1.00;;;;;;5061819;28;20497;-76
2023/09/07 06:52:25;;;;;;;10.67;9.73;;;20.70;1.00;;;;;;5061297;28;20463;-76
2023/09/07 06:54:54;;;;;;;9.70;8.77;;;20.70;1.00;;;;;;5061277;28;20524;-76
2023/09/07 06:57:21;;;;;;;10.83;9.93;;;20.80;1.00;;;;;;5057594;28;20513;-75
2023/09/07 06:59:48;;;;;;;10.00;9.00;;;20.80;1.00;;;;;;5061433;28;20478;-75
2023/09/07 07:02:15;;;;;;;10.80;9.90;;;20.80;1.00;;;;;;5043274;28;20609;-77
2023/09/07 07:04:43;;;;;;;10.53;9.50;;;20.90;1.00;;;;;;5062536;28;20469;-74
2023/09/07 07:07:13;;;;;;;10.57;9.37;;;21.00;1.00;;;;;;5058477;28;20497;-76
2023/09/07 07:09:40;;;;;;;11.03;9.93;;;21.10;1.00;;;;;;5061187;28;20504;-76
2023/09/07 07:12:07;;;;;;;9.20;8.30;;;21.20;1.00;;;;;;5058487;28;20522;-74
2023/09/07 07:14:34;;;;;;;10.10;9.10;;;21.30;1.00;;;;;;5057399;28;21121;-72
2023/09/07 07:17:04;;;;;;;9.73;8.83;;;21.40;1.00;;;;;;5060506;28;20455;-72
2023/09/07 07:19:31;;;;;;;10.57;9.57;;;21.50;1.00;;;;;;5065019;28;20475;-72
2023/09/07 07:21:58;;;;;;;9.13;8.20;;;21.70;1.00;;;;;;5062206;28;21052;-72
2023/09/07 07:24:28;;;;;;;10.73;9.27;;;21.90;1.00;;;;;;5066340;28;20425;-71
2023/09/07 07:26:55;;;;;;;9.80;9.03;;;22.00;1.00;;;;;;5051710;28;20481;-73
2023/09/07 07:29:22;;;;;;;9.60;8.60;;;22.20;1.00;;;;;;5066519;28;20991;-73
2023/09/07 07:31:49;;;;;;;9.50;8.60;;;22.30;1.00;;;;;;5062459;28;20512;-72
2023/09/07 07:34:16;;;;;;;9.90;9.00;;;22.50;1.00;;;;;;5063771;28;20459;-72
2023/09/07 07:36:43;;;;;;;11.73;9.10;;;22.70;1.00;;;;;;5067994;28;20541;-72
2023/09/07 07:39:10;;;;;;;12.00;9.77;;;22.80;1.00;;;;;;5063928;28;21018;-73
2023/09/07 07:41:38;;;;;;;8.83;8.03;;;22.80;1.00;;;;;;5062286;28;20568;-71
2023/09/07 07:44:05;;;;;;;13.40;12.23;;;22.90;1.00;;;;;;5042405;28;20461;-71
2023/09/07 07:46:32;;;;;;;12.90;11.70;;;23.00;1.00;;;;;;5062837;28;20459;-73
2023/09/07 07:48:59;;;;;;;12.20;8.97;;;23.20;1.00;;;;;;5064862;28;20460;-72
2023/09/07 07:51:27;;;;;;;9.87;8.97;;;23.30;1.00;;;;;;5054085;28;20555;-75
2023/09/07 07:53:56;;;;;;;9.07;8.13;;;23.40;1.00;;;;;;5062832;28;20500;-76
2023/09/07 07:56:24;;;;;;;10.07;9.07;;;23.40;1.00;;;;;;5060817;28;20473;-74
2023/09/07 07:58:52;;;;;;;11.90;8.57;;;23.60;1.00;;;;;;5063657;28;20448;-77
2023/09/07 08:01:21;;;;;;;11.33;7.40;;;23.70;1.00;;;;;;5063873;28;20530;-77
2023/09/07 08:03:48;;;;;;;9.90;8.13;;;23.80;1.00;;;;;;5062170;28;20482;-76
2023/09/07 08:06:15;;;;;;;11.20;8.30;;;24.00;1.00;;;;;;5061881;28;20831;-76
2023/09/07 08:08:42;;;;;;;9.13;8.33;;;24.00;1.00;;;;;;5056514;28;20506;-77
2023/09/07 08:11:11;;;;;;;7.77;7.07;;;24.10;1.00;;;;;;5063684;28;20446;-75
2023/09/07 08:13:38;;;;;;;9.03;8.20;;;24.20;1.00;;;;;;5061431;28;20472;-76
2023/09/07 08:16:06;;;;;;;9.50;8.37;;;24.30;1.00;;;;;;5063155;28;20546;-78
2023/09/07 08:18:34;;;;;;;9.13;8.27;;;24.30;1.00;;;;;;5058644;28;20467;-72
2023/09/07 08:21:03;;;;;;;8.63;7.83;;;24.40;1.00;;;;;;5059092;28;20462;-73
2023/09/07 08:23:31;;;;;;;9.97;8.00;;;24.60;1.00;;;;;;5062921;28;20468;-73
2023/09/07 08:25:58;;;;;;;8.80;7.90;;;24.70;1.00;;;;;;5060387;28;20499;-73
2023/09/07 08:28:25;;;;;;;9.23;8.43;;;24.80;1.00;;;;;;5061517;28;20898;-72
2023/09/07 08:30:54;;;;;;;16.03;7.90;;;24.90;1.00;;;;;;5060767;28;20470;-74
2023/09/07 08:33:28;;;;;;;8.60;7.70;;;25.10;1.00;;;;;;5056166;28;20471;-73
2023/09/07 08:35:56;;;;;;;8.73;7.70;;;25.30;1.00;;;;;;5054041;28;20871;-73
2023/09/07 08:38:27;;;;;;;7.43;6.73;;;25.30;1.00;;;;;;5058915;28;20483;-72
2023/09/07 08:40:57;;;;;;;7.93;7.20;;;25.50;1.00;;;;;;5048190;28;20457;-73
2023/09/07 08:43:25;;;;;;;8.73;7.70;;;25.50;1.00;;;;;;5069222;28;20464;-73
2023/09/07 08:46:00;;;;;;;11.00;8.57;;;25.60;1.00;;;;;;5042284;28;20452;-73
2023/09/07 08:48:30;;;;;;;9.50;7.50;;;25.70;1.00;;;;;;5065769;28;21010;-71
2023/09/07 08:50:57;;;;;;;8.10;7.30;;;25.80;1.00;;;;;;5067556;28;20958;-70
2023/09/07 08:53:25;;;;;;;7.83;7.10;;;26.00;1.00;;;;;;5061703;28;20698;-73
2023/09/07 08:55:52;;;;;;;8.40;7.37;;;26.20;1.00;;;;;;5055452;28;20546;-73
2023/09/07 08:58:20;;;;;;;6.97;6.37;;;26.20;1.00;;;;;;5049744;28;21037;-72
2023/09/07 09:00:49;;;;;;;8.87;6.87;;;26.30;1.00;;;;;;5061376;28;20465;-73
2023/09/07 09:03:16;;;;;;;7.40;6.80;;;26.40;1.00;;;;;;5063556;28;20469;-73
2023/09/07 09:05:45;;;;;;;7.60;6.90;;;26.50;1.00;;;;;;5062868;28;20497;-72
2023/09/07 09:08:12;;;;;;;7.50;6.80;;;26.70;1.00;;;;;;5060675;28;20470;-73
2023/09/07 09:10:40;;;;;;;6.97;6.40;;;26.90;1.00;;;;;;5062181;28;20584;-72
2023/09/07 09:13:07;;;;;;;7.60;6.90;;;26.90;1.00;;;;;;5062959;28;20477;-72
2023/09/07 09:15:34;;;;;;;7.10;6.60;;;27.00;1.00;;;;;;5060890;28;20978;-72
2023/09/07 09:18:11;;;;;;;7.70;6.80;;;27.30;1.00;;;;;;5054309;28;20434;-72
2023/09/07 09:20:39;;;;;;;8.27;7.57;;;27.70;1.00;;;;;;5062544;28;21992;-70
2023/09/07 09:23:08;;;;;;;7.17;6.57;;;28.80;1.00;;;;;;5060480;28;20549;-73
2023/09/07 09:25:35;;;;;;;7.00;6.40;;;30.20;1.00;;;;;;5061408;28;20486;-72
2023/09/07 09:28:02;;;;;;;7.70;7.10;;;31.30;1.00;;;;;;5060363;28;20493;-74
2023/09/07 09:30:29;;;;;;;7.40;6.90;;;32.60;1.00;;;;;;5059474;28;21783;-75
2023/09/07 09:32:56;;;;;;;7.83;6.60;;;33.70;1.00;;;;;;5057922;28;21003;-75
2023/09/07 09:35:24;;;;;;;7.10;6.40;;;34.30;1.00;;;;;;5056977;28;21010;-75
2023/09/07 09:37:53;;;;;;;6.80;6.30;;;34.60;1.00;;;;;;5052075;28;20483;-76
2023/09/07 09:40:22;;;;;;;7.00;6.40;;;34.90;1.00;;;;;;5058910;28;20474;-74
2023/09/07 09:42:52;;;;;;;6.50;6.00;;;35.70;1.00;;;;;;5059813;28;20507;-74
2023/09/07 09:45:21;;;;;;;6.20;5.60;;;35.40;1.00;;;;;;5056315;28;20467;-76
2023/09/07 09:47:50;;;;;;;6.60;6.10;;;35.30;1.00;;;;;;5057748;28;21709;-75
2023/09/07 09:50:19;;;;;;;6.20;5.70;;;35.80;1.00;;;;;;5057000;28;20443;-73
2023/09/07 09:52:47;;;;;;;6.30;5.80;;;35.60;1.00;;;;;;5057696;28;20939;-77
2023/09/07 09:55:15;;;;;;;6.30;5.80;;;35.70;1.00;;;;;;5054230;28;20565;-79
2023/09/07 09:57:43;;;;;;;6.87;6.27;;;34.50;1.00;;;;;;5039209;28;20480;-77
2023/09/07 10:00:25;;;;;;;6.77;6.27;;;34.10;1.00;;;;;;5052027;28;20505;-77
2023/09/07 10:03:00;;;;;;;5.63;5.20;;;34.90;1.00;;;;;;5054767;28;21884;-77
2023/09/07 10:05:28;;;;;;;6.20;5.80;;;35.70;1.00;;;;;;5048063;28;20459;-71
2023/09/07 10:08:06;;;;;;;5.80;5.37;;;36.10;1.00;;;;;;5049336;28;20741;-70
2023/09/07 10:10:36;;;;;;;6.37;5.87;;;36.10;1.00;;;;;;5056232;28;20459;-71
2023/09/07 10:13:04;;;;;;;6.33;5.70;;;35.90;1.00;;;;;;5052745;28;20456;-70
2023/09/07 10:15:35;;;;;;;6.13;5.63;;;36.80;1.00;;;;;;5055965;28;20545;-70
2023/09/07 10:18:11;;;;;;;6.23;5.73;;;37.00;1.00;;;;;;5057276;28;20463;-72
2023/09/07 10:20:51;;;;;;;5.97;5.47;;;37.40;1.00;;;;;;5062773;28;20449;-71
2023/09/07 10:23:18;;;;;;;6.77;6.17;;;38.10;1.00;;;;;;5059296;28;20455;-71
2023/09/07 10:25:49;;;;;;;6.07;5.47;;;38.80;1.00;;;;;;5061454;28;20459;-71
2023/09/07 10:28:22;;;;;;;6.13;5.63;;;39.10;1.00;;;;;;5061589;28;20476;-71
2023/09/07 10:31:00;;;;;;;5.23;4.70;;;39.30;1.00;;;;;;5057979;28;20547;-76
2023/09/07 10:33:27;;;;;;;6.23;5.70;;;38.20;1.00;;;;;;5048577;28;20460;-76
2023/09/07 10:35:57;;;;;;;5.00;4.70;;;37.40;1.00;;;;;;5046923;28;20516;-76
2023/09/07 10:38:26;;;;;;;5.30;4.90;;;37.40;1.00;;;;;;5055076;28;20571;-75
2023/09/07 10:40:58;;;;;;;4.60;4.23;;;37.30;1.00;;;;;;5057449;28;20463;-76
2023/09/07 10:43:27;;;;;;;6.93;6.30;;;37.20;1.00;;;;;;5063068;28;20656;-76
2023/09/07 10:45:55;;;;;;;7.40;5.17;;;38.00;1.00;;;;;;5059502;28;20496;-76
2023/09/07 10:48:23;;;;;;;5.37;4.30;;;38.80;1.00;;;;;;5058194;28;20475;-76
2023/09/07 10:50:51;;;;;;;4.90;4.60;;;39.30;1.00;;;;;;5059584;28;20463;-77
2023/09/07 10:53:27;;;;;;;5.93;5.43;;;38.90;1.00;;;;;;5065372;28;20519;-77
2023/09/07 10:55:55;;;;;;;6.60;5.30;;;39.10;1.00;;;;;;5054469;28;20459;-77
2023/09/07 10:58:28;;;;;;;6.03;5.53;;;39.50;1.00;;;;;;5063950;28;20507;-78
2023/09/07 11:00:56;;;;;;;4.60;4.30;;;39.70;1.00;;;;;;5063339;28;20453;-78
2023/09/07 11:03:23;;;;;;;5.90;5.37;;;39.50;1.00;;;;;;5062718;28;20455;-75
2023/09/07 11:05:52;;;;;;;4.90;4.40;;;39.50;1.00;;;;;;5063216;28;20571;-77
2023/09/07 11:08:19;;;;;;;4.73;4.33;;;40.40;1.00;;;;;;5065109;28;20468;-77
2023/09/07 11:10:46;;;;;;;4.93;4.50;;;40.50;1.00;;;;;;5052077;28;20578;-77
2023/09/07 11:13:13;;;;;;;5.40;4.97;;;40.50;1.00;;;;;;5040186;28;20460;-75
2023/09/07 11:15:43;;;;;;;4.97;4.57;;;40.60;1.00;;;;;;5062182;28;20463;-75
2023/09/07 11:18:10;;;;;;;4.97;4.63;;;40.60;1.00;;;;;;5062269;28;20990;-75
2023/09/07 11:20:39;;;;;;;5.90;4.30;;;40.60;1.00;;;;;;5060551;28;20521;-75
2023/09/07 11:23:06;;;;;;;4.63;4.00;;;41.00;1.00;;;;;;5061313;28;20478;-75
2023/09/07 11:25:37;;;;;;;4.67;4.17;;;40.50;1.00;;;;;;5067325;28;20474;-75
2023/09/07 11:28:05;;;;;;;5.50;4.90;;;40.60;1.00;;;;;;5058643;28;20479;-74
2023/09/07 11:30:33;;;;;;;5.20;4.80;;;40.40;1.00;;;;;;5057645;28;20473;-73
2023/09/07 11:33:06;;;;;;;5.27;4.77;;;40.80;1.00;;;;;;5048342;28;20455;-75
2023/09/07 11:35:34;;;;;;;4.80;4.30;;;41.50;1.00;;;;;;5048517;28;20554;-75
2023/09/07 11:38:03;;;;;;;5.37;4.97;;;41.40;1.00;;;;;;5056701;28;20472;-75
2023/09/07 11:40:30;;;;;;;5.40;4.90;;;41.30;1.00;;;;;;5060966;28;20459;-75
2023/09/07 11:42:58;;;;;;;6.87;5.53;;;41.20;1.00;;;;;;5057044;28;20539;-75
2023/09/07 11:45:25;;;;;;;5.43;4.83;;;41.40;1.00;;;;;;5058785;28;20794;-76
2023/09/07 11:47:52;;;;;;;5.20;4.73;;;42.10;1.00;;;;;;5050364;28;20479;-73
2023/09/07 11:50:24;;;;;;;5.57;5.07;;;42.40;1.00;;;;;;5059840;28;20467;-73
2023/09/07 11:52:51;;;;;;;5.23;4.73;;;42.50;1.00;;;;;;5061090;28;20467;-73
2023/09/07 11:55:19;;;;;;;5.07;4.67;;;42.20;1.00;;;;;;5054704;28;20460;-72
2023/09/07 11:57:46;;;;;;;6.20;5.60;;;41.50;1.00;;;;;;5058722;28;20511;-71
2023/09/07 12:00:14;;;;;;;6.30;5.80;;;41.90;1.00;;;;;;5058813;28;20459;-73
2023/09/07 12:02:41;;;;;;;5.87;5.47;;;41.90;1.00;;;;;;5054727;28;20460;-72
2023/09/07 12:05:09;;;;;;;5.30;4.80;;;42.50;1.00;;;;;;5063652;28;20474;-72
2023/09/07 12:07:38;;;;;;;5.07;4.67;;;42.50;1.00;;;;;;5057852;28;20499;-73
2023/09/07 12:10:05;;;;;;;6.27;5.10;;;42.00;1.00;;;;;;5058952;28;20460;-72
2023/09/07 12:12:32;;;;;;;5.10;4.70;;;41.70;1.00;;;;;;5058096;28;20466;-73
2023/09/07 12:15:00;;;;;;;5.33;4.83;;;42.20;1.00;;;;;;5058424;28;20452;-73
2023/09/07 12:17:27;;;;;;;5.20;4.70;;;42.50;1.00;;;;;;5063892;28;20919;-73
2023/09/07 12:19:54;;;;;;;5.27;4.77;;;42.00;1.00;;;;;;5060407;28;20475;-71
2023/09/07 12:22:20;;;;;;;5.07;4.20;;;40.80;1.00;;;;;;5063332;28;20555;-72
2023/09/07 12:24:51;;;;;;;5.30;4.90;;;40.60;1.00;;;;;;5057158;28;20547;-72
2023/09/07 12:27:19;;;;;;;3.93;3.53;;;40.60;1.00;;;;;;5055672;28;20475;-72
2023/09/07 12:29:45;;;;;;;4.90;4.50;;;40.90;1.00;;;;;;5059962;28;20530;-73
2023/09/07 12:32:13;;;;;;;4.60;4.20;;;41.40;1.00;;;;;;5062149;28;20466;-72
2023/09/07 12:34:40;;;;;;;4.50;4.10;;;41.90;1.00;;;;;;5066655;28;21195;-72
2023/09/07 12:37:08;;;;;;;5.57;5.07;;;42.60;1.00;;;;;;5062698;28;20472;-76
2023/09/07 12:39:35;;;;;;;9.00;7.03;;;42.50;1.00;;;;;;5069191;28;20614;-78
2023/09/07 12:42:04;;;;;;;4.70;4.40;;;43.20;1.00;;;;;;5065846;28;21162;-76
2023/09/07 12:44:30;;;;;;;5.03;4.57;;;42.90;1.00;;;;;;5068628;28;20450;-75
2023/09/07 12:47:02;;;;;;;5.67;5.17;;;43.30;1.00;;;;;;5068645;28;20581;-77
2023/09/07 12:49:30;;;;;;;5.00;4.50;;;43.60;1.00;;;;;;5071159;28;20545;-75
2023/09/07 12:51:57;;;;;;;4.80;4.40;;;43.60;1.00;;;;;;5066335;28;20467;-75
2023/09/07 12:54:24;;;;;;;4.87;4.47;;;43.40;1.00;;;;;;5067963;28;20458;-75
2023/09/07 12:56:51;;;;;;;5.43;4.77;;;43.30;1.00;;;;;;5069277;28;20508;-75
2023/09/07 12:59:19;;;;;;;5.20;4.70;;;43.30;1.00;;;;;;5064119;28;20446;-76
2023/09/07 13:01:47;;;;;;;5.40;4.90;;;42.60;1.00;;;;;;5061737;28;20463;-74
2023/09/07 13:04:14;;;;;;;6.17;5.20;;;42.80;1.00;;;;;;5062486;28;20460;-74
2023/09/07 13:06:41;;;;;;;5.93;5.53;;;42.90;1.00;;;;;;5068570;28;21412;-74